Time;durP1;ratioP1;P1;durP2;ratioP2;P2;SDS_P1;SDS_P2;PMS_P1;PMS_P2;Temp;Humidity;BMP_temperature;BMP_pressure;BME280_temperature;BME280_humidity;BME280_pressure;Samples;Min_cycle;Max_cycle;Signal;HPM_P1;HPM_P2
2022/07/10 00:02:12;;;;;;;3.22;0.90;;;22.80;53.40;;;;;;5030187;28;20034;-63
2022/07/10 00:04:38;;;;;;;2.15;0.60;;;22.80;53.40;;;;;;5028492;28;20388;-63
2022/07/10 00:07:04;;;;;;;2.95;1.05;;;22.80;53.40;;;;;;5031804;28;20041;-64
2022/07/10 00:09:30;;;;;;;2.58;0.75;;;22.80;53.40;;;;;;5027672;28;20091;-63
2022/07/10 00:11:55;;;;;;;2.38;0.90;;;22.80;53.40;;;;;;5010447;28;20051;-64
2022/07/10 00:14:21;;;;;;;2.63;0.80;;;22.80;53.40;;;;;;5028879;28;20419;-64
2022/07/10 00:16:47;;;;;;;1.80;0.60;;;22.80;53.30;;;;;;5027608;28;20517;-63
2022/07/10 00:19:13;;;;;;;2.85;0.88;;;22.80;53.40;;;;;;5029011;28;20572;-64
2022/07/10 00:21:38;;;;;;;4.05;0.90;;;22.80;53.40;;;;;;5028539;28;20037;-63
2022/07/10 00:24:05;;;;;;;1.88;0.70;;;22.80;53.40;;;;;;5007346;28;20032;-64
2022/07/10 00:26:30;;;;;;;1.92;0.80;;;22.80;53.30;;;;;;5027583;28;20145;-63
2022/07/10 00:28:56;;;;;;;2.63;0.70;;;22.80;53.30;;;;;;5028279;28;20069;-65
2022/07/10 00:31:22;;;;;;;2.83;0.70;;;22.80;53.30;;;;;;5028370;28;20036;-63
2022/07/10 00:33:48;;;;;;;3.90;1.00;;;22.80;53.30;;;;;;5030480;28;20048;-64
2022/07/10 00:36:14;;;;;;;5.18;1.05;;;22.80;53.30;;;;;;5029851;28;20056;-64
2022/07/10 00:38:40;;;;;;;4.60;0.90;;;22.80;53.30;;;;;;5012017;28;20150;-64
2022/07/10 00:41:05;;;;;;;2.65;0.80;;;22.80;53.30;;;;;;5029244;28;20056;-64
2022/07/10 00:43:55;;;;;;;3.22;0.88;;;22.80;53.30;;;;;;5029562;28;20439;-63
2022/07/10 00:46:21;;;;;;;2.15;0.82;;;22.80;53.30;;;;;;5031550;28;20049;-65
2022/07/10 00:48:48;;;;;;;2.75;1.05;;;22.70;53.30;;;;;;5032356;28;20092;-64
2022/07/10 00:51:19;;;;;;;2.30;0.90;;;22.70;53.30;;;;;;5029871;28;20041;-64
2022/07/10 00:53:47;;;;;;;3.33;0.90;;;22.70;53.30;;;;;;5029473;28;20079;-64
2022/07/10 00:56:16;;;;;;;2.65;1.13;;;22.70;53.20;;;;;;5008321;28;20489;-63
2022/07/10 00:58:43;;;;;;;2.17;0.95;;;22.80;53.30;;;;;;5030633;28;20041;-65
2022/07/10 01:01:09;;;;;;;3.22;0.82;;;22.70;53.30;;;;;;5029612;28;20037;-63
2022/07/10 01:03:35;;;;;;;2.13;0.93;;;22.70;53.40;;;;;;5008777;28;20040;-63
2022/07/10 01:06:01;;;;;;;2.63;1.10;;;22.70;53.30;;;;;;5029376;28;20116;-63
2022/07/10 01:08:28;;;;;;;3.10;0.95;;;22.70;53.30;;;;;;5009688;28;20041;-63
2022/07/10 01:10:53;;;;;;;2.67;0.80;;;22.70;53.30;;;;;;5027373;28;20037;-64
2022/07/10 01:13:19;;;;;;;2.17;1.00;;;22.70;53.30;;;;;;5030310;28;20037;-63
2022/07/10 01:15:46;;;;;;;1.48;0.63;;;22.70;53.30;;;;;;5010793;28;20686;-63
2022/07/10 01:18:13;;;;;;;2.42;1.00;;;22.70;53.20;;;;;;5026733;28;20037;-63
2022/07/10 01:20:38;;;;;;;2.92;1.00;;;22.70;54.00;;;;;;5025939;28;20464;-64
2022/07/10 01:23:04;;;;;;;4.35;1.30;;;22.70;53.30;;;;;;5027298;28;20129;-63
2022/07/10 01:25:30;;;;;;;3.45;0.70;;;22.70;53.30;;;;;;5029244;28;20517;-63
2022/07/10 01:27:55;;;;;;;2.90;0.90;;;22.70;53.30;;;;;;5029949;28;20031;-63
2022/07/10 01:30:21;;;;;;;5.50;1.20;;;22.70;53.20;;;;;;5027088;28;20033;-63
2022/07/10 01:32:47;;;;;;;2.20;0.73;;;22.70;53.30;;;;;;5009751;28;20056;-63
2022/07/10 01:35:13;;;;;;;1.17;0.70;;;22.70;53.30;;;;;;5010423;28;20527;-64
2022/07/10 01:37:42;;;;;;;1.85;0.77;;;22.70;53.30;;;;;;5011063;28;20087;-64
2022/07/10 01:40:08;;;;;;;1.83;0.70;;;22.70;53.30;;;;;;5009203;28;20100;-64
2022/07/10 01:42:34;;;;;;;2.85;0.70;;;22.70;53.20;;;;;;5028560;28;20047;-64
2022/07/10 01:45:00;;;;;;;3.08;1.08;;;22.70;53.20;;;;;;5028611;28;20490;-63
2022/07/10 01:47:27;;;;;;;2.85;0.85;;;22.70;53.30;;;;;;5030476;28;20041;-63
2022/07/10 01:49:53;;;;;;;2.47;0.95;;;22.70;53.20;;;;;;5011117;28;20487;-64
2022/07/10 01:52:20;;;;;;;2.95;0.75;;;22.70;53.20;;;;;;5029147;28;20041;-63
2022/07/10 01:54:46;;;;;;;3.53;0.90;;;22.70;53.20;;;;;;5026612;28;20128;-63
2022/07/10 01:57:13;;;;;;;1.42;0.80;;;22.70;53.20;;;;;;5027681;28;20040;-63
2022/07/10 01:59:39;;;;;;;2.28;0.88;;;22.70;53.20;;;;;;5011231;28;20044;-63
2022/07/10 02:02:05;;;;;;;1.52;0.60;;;22.70;53.10;;;;;;4994425;28;20415;-63
2022/07/10 02:04:43;;;;;;;2.85;0.88;;;22.70;53.20;;;;;;5028763;28;20042;-63
2022/07/10 02:07:14;;;;;;;1.80;0.77;;;22.70;53.10;;;;;;5012860;28;20477;-63
2022/07/10 02:09:41;;;;;;;2.80;0.75;;;22.70;53.10;;;;;;5029578;28;20042;-63
2022/07/10 02:12:12;;;;;;;3.47;1.17;;;22.70;53.10;;;;;;5031001;28;20417;-65
2022/07/10 02:14:39;;;;;;;2.88;0.95;;;22.60;53.00;;;;;;5002923;28;20041;-63
2022/07/10 02:17:05;;;;;;;3.53;0.90;;;22.60;53.00;;;;;;5033360;28;20056;-63
2022/07/10 02:19:31;;;;;;;2.42;0.80;;;22.70;53.10;;;;;;5032332;28;20053;-63
2022/07/10 02:21:58;;;;;;;1.70;0.60;;;22.60;53.00;;;;;;5032372;28;20111;-64
2022/07/10 02:24:24;;;;;;;3.90;0.80;;;22.60;53.70;;;;;;5011929;28;20076;-64
2022/07/10 02:26:49;;;;;;;1.85;0.90;;;22.60;52.90;;;;;;5034171;28;20037;-63
2022/07/10 02:29:15;;;;;;;2.58;0.85;;;22.60;52.90;;;;;;5031838;28;20646;-63
2022/07/10 02:31:41;;;;;;;3.13;0.80;;;22.60;52.90;;;;;;5031392;28;20474;-63
2022/07/10 02:34:08;;;;;;;2.40;1.20;;;22.60;52.90;;;;;;5026160;28;20049;-64
2022/07/10 02:36:34;;;;;;;2.53;0.80;;;22.60;53.60;;;;;;5030637;28;20111;-67
2022/07/10 02:39:00;;;;;;;2.83;0.80;;;22.60;52.90;;;;;;5027302;28;20042;-64
2022/07/10 02:41:25;;;;;;;1.88;0.70;;;22.60;52.80;;;;;;5009770;28;20385;-63
2022/07/10 02:43:51;;;;;;;2.13;1.00;;;22.60;52.90;;;;;;5011636;28;20050;-64
2022/07/10 02:46:17;;;;;;;2.45;1.13;;;22.60;52.90;;;;;;5025978;28;20590;-64
2022/07/10 02:48:42;;;;;;;2.25;0.68;;;22.60;52.80;;;;;;5031067;28;20057;-64
2022/07/10 02:51:08;;;;;;;4.63;0.85;;;22.60;52.90;;;;;;5031509;28;20386;-63
2022/07/10 02:53:34;;;;;;;3.08;1.02;;;22.60;52.80;;;;;;5029318;28;20087;-64
2022/07/10 02:55:59;;;;;;;3.05;0.90;;;22.60;52.80;;;;;;5030873;28;20176;-63
2022/07/10 02:58:25;;;;;;;2.53;0.90;;;22.60;52.80;;;;;;5033827;28;20049;-63
2022/07/10 03:00:51;;;;;;;1.75;0.80;;;22.60;52.80;;;;;;5012956;28;20049;-64
2022/07/10 03:03:17;;;;;;;2.63;0.98;;;22.60;52.80;;;;;;5030915;28;20075;-63
2022/07/10 03:05:46;;;;;;;2.92;0.77;;;22.60;52.80;;;;;;5030594;28;20502;-63
2022/07/10 03:08:12;;;;;;;1.88;0.70;;;22.60;52.80;;;;;;5012443;28;20493;-64
2022/07/10 03:10:38;;;;;;;2.10;0.70;;;22.60;52.80;;;;;;5012407;28;20041;-63
2022/07/10 03:13:04;;;;;;;3.63;1.05;;;22.60;52.70;;;;;;5029476;28;20849;-63
2022/07/10 03:15:30;;;;;;;2.67;0.80;;;22.60;52.70;;;;;;5011882;28;20047;-63
2022/07/10 03:17:56;;;;;;;2.70;1.00;;;22.60;53.40;;;;;;5030154;28;20041;-62
2022/07/10 03:20:21;;;;;;;2.50;0.70;;;22.60;52.70;;;;;;4997063;28;20040;-63
2022/07/10 03:22:47;;;;;;;2.58;0.82;;;22.60;52.70;;;;;;5029980;28;20049;-63
2022/07/10 03:25:13;;;;;;;1.83;0.80;;;22.60;52.70;;;;;;5027549;28;20091;-63
2022/07/10 03:27:39;;;;;;;2.67;0.77;;;22.50;52.80;;;;;;5030003;28;20037;-64
2022/07/10 03:30:06;;;;;;;3.20;0.73;;;22.60;52.70;;;;;;5030418;28;20492;-64
2022/07/10 03:32:32;;;;;;;1.40;0.70;;;22.50;52.60;;;;;;5033619;28;20048;-63
2022/07/10 03:34:58;;;;;;;2.28;0.80;;;22.50;52.60;;;;;;5030749;28;20087;-63
2022/07/10 03:37:24;;;;;;;2.22;0.88;;;22.50;52.60;;;;;;5014777;28;20516;-63
2022/07/10 03:39:49;;;;;;;3.17;0.80;;;22.50;52.60;;;;;;5028161;28;20045;-63
2022/07/10 03:42:15;;;;;;;2.95;0.80;;;22.50;52.60;;;;;;5029995;28;20029;-63
2022/07/10 03:44:41;;;;;;;3.20;0.80;;;22.50;52.60;;;;;;5030110;28;20059;-63
2022/07/10 03:47:06;;;;;;;3.33;0.90;;;22.50;52.50;;;;;;5031450;28;20057;-63
2022/07/10 03:49:32;;;;;;;3.38;1.00;;;22.50;52.50;;;;;;5030750;28;20322;-63
2022/07/10 03:52:02;;;;;;;2.20;0.88;;;22.50;52.50;;;;;;5011078;28;20594;-62
2022/07/10 03:54:29;;;;;;;3.10;0.80;;;22.50;52.50;;;;;;5031178;28;20044;-64
2022/07/10 03:59:40;;;;;;;1.52;0.70;;;22.50;52.60;;;;;;5011683;28;20382;-63
2022/07/10 04:02:06;;;;;;;3.92;0.90;;;22.50;52.60;;;;;;5012034;28;20048;-63
2022/07/10 04:04:32;;;;;;;3.17;1.00;;;22.50;52.60;;;;;;5029302;28;20768;-63
2022/07/10 04:06:58;;;;;;;2.70;0.80;;;22.50;52.60;;;;;;5028727;28;20051;-64
2022/07/10 04:09:23;;;;;;;4.03;0.70;;;22.50;52.60;;;;;;5011300;28;20053;-63
2022/07/10 04:11:49;;;;;;;2.58;0.80;;;22.50;52.50;;;;;;5007693;28;20053;-64
2022/07/10 04:14:15;;;;;;;2.80;0.82;;;22.50;52.50;;;;;;5012289;28;20049;-63
2022/07/10 04:16:40;;;;;;;2.20;0.80;;;22.50;52.50;;;;;;5011782;28;20389;-63
2022/07/10 04:19:06;;;;;;;2.72;0.90;;;22.50;52.50;;;;;;5011134;28;20501;-63
2022/07/10 04:21:31;;;;;;;2.72;0.65;;;22.50;52.50;;;;;;5012735;28;20037;-63
2022/07/10 04:23:57;;;;;;;1.30;0.90;;;22.50;52.50;;;;;;5012019;28;20509;-63
2022/07/10 04:26:23;;;;;;;2.38;0.95;;;22.50;52.50;;;;;;5026969;28;20034;-63
2022/07/10 04:28:49;;;;;;;2.22;0.90;;;22.50;52.50;;;;;;5025594;28;20041;-63
2022/07/10 04:31:15;;;;;;;2.55;1.00;;;22.50;52.50;;;;;;5009106;28;20048;-62
2022/07/10 04:33:40;;;;;;;1.85;0.65;;;22.50;52.50;;;;;;5011780;28;20108;-63
2022/07/10 04:36:06;;;;;;;1.60;0.75;;;22.50;52.50;;;;;;5027083;28;20156;-64
2022/07/10 04:38:32;;;;;;;2.90;0.98;;;22.50;52.50;;;;;;5010479;28;20065;-63
2022/07/10 04:40:58;;;;;;;1.98;0.73;;;22.50;52.50;;;;;;5026002;28;20037;-64
2022/07/10 04:43:23;;;;;;;2.90;0.63;;;22.50;52.50;;;;;;5022725;28;20067;-64
2022/07/10 04:45:49;;;;;;;1.85;0.77;;;22.50;52.50;;;;;;5026275;28;20041;-63
2022/07/10 04:48:15;;;;;;;2.20;0.80;;;22.50;52.50;;;;;;5023849;28;20608;-64
2022/07/10 04:50:41;;;;;;;2.25;0.85;;;22.50;52.50;;;;;;5025783;28;21235;-64
2022/07/10 04:53:06;;;;;;;2.88;1.00;;;22.50;52.60;;;;;;5028002;28;20041;-64
2022/07/10 04:55:32;;;;;;;3.22;0.88;;;22.40;52.60;;;;;;5025398;28;20099;-64
2022/07/10 04:57:58;;;;;;;2.53;0.80;;;22.50;52.60;;;;;;5026732;28;20136;-63
2022/07/10 05:00:24;;;;;;;2.00;0.93;;;22.40;52.50;;;;;;5029549;28;20573;-64
2022/07/10 05:02:49;;;;;;;2.33;0.70;;;22.40;52.50;;;;;;5008255;28;20505;-63
2022/07/10 05:05:15;;;;;;;1.95;0.70;;;22.40;52.60;;;;;;5010128;28;20945;-63
2022/07/10 05:07:41;;;;;;;2.75;0.75;;;22.40;52.50;;;;;;5029065;28;20512;-64
2022/07/10 05:10:07;;;;;;;1.75;0.70;;;22.40;52.60;;;;;;5010313;28;20037;-63
2022/07/10 05:12:32;;;;;;;2.50;0.70;;;22.40;52.60;;;;;;5027715;28;20150;-64
2022/07/10 05:14:59;;;;;;;2.67;0.93;;;22.40;52.60;;;;;;5025961;28;20677;-64
2022/07/10 05:17:28;;;;;;;3.55;0.88;;;22.40;52.60;;;;;;5029497;28;20045;-63
2022/07/10 05:19:55;;;;;;;2.20;0.70;;;22.40;52.60;;;;;;5012584;28;20496;-65
2022/07/10 05:22:21;;;;;;;5.10;1.00;;;22.40;52.70;;;;;;5012309;28;20986;-64
2022/07/10 05:24:48;;;;;;;3.03;0.95;;;22.40;52.60;;;;;;5026477;28;20034;-64
2022/07/10 05:27:13;;;;;;;1.77;0.77;;;22.40;52.70;;;;;;5028918;28;20542;-64
2022/07/10 05:29:39;;;;;;;3.72;0.88;;;22.40;52.70;;;;;;5029407;28;20034;-64
2022/07/10 05:32:04;;;;;;;2.20;0.90;;;22.40;52.80;;;;;;5030838;28;20092;-63
2022/07/10 05:34:30;;;;;;;2.00;1.02;;;22.40;52.80;;;;;;5027334;28;20882;-63
2022/07/10 05:36:56;;;;;;;3.40;0.80;;;22.40;52.80;;;;;;5027256;28;21044;-64
2022/07/10 05:39:25;;;;;;;5.18;0.90;;;22.40;52.90;;;;;;5031713;28;20520;-64
2022/07/10 05:41:52;;;;;;;2.20;0.70;;;22.40;52.90;;;;;;5031124;28;20049;-64
2022/07/10 05:44:19;;;;;;;3.53;0.88;;;22.40;53.00;;;;;;5032495;28;20030;-64
2022/07/10 05:46:45;;;;;;;3.92;0.95;;;22.40;53.10;;;;;;5031019;28;20056;-63
2022/07/10 05:49:11;;;;;;;3.42;0.90;;;22.40;53.10;;;;;;5030276;28;20145;-63
2022/07/10 05:51:37;;;;;;;3.17;1.13;;;22.30;53.00;;;;;;5013060;28;20131;-64
2022/07/10 05:54:03;;;;;;;3.67;0.95;;;22.40;53.20;;;;;;5010606;28;20078;-64
2022/07/10 05:56:29;;;;;;;2.97;0.82;;;22.30;53.10;;;;;;5012877;28;20038;-63
2022/07/10 05:58:57;;;;;;;2.22;0.80;;;22.30;53.20;;;;;;4993165;28;20104;-64
2022/07/10 06:01:24;;;;;;;2.80;0.93;;;22.30;53.30;;;;;;5031790;28;20033;-65
2022/07/10 06:03:49;;;;;;;3.60;0.88;;;22.30;53.30;;;;;;5030166;28;20033;-63
2022/07/10 06:06:15;;;;;;;2.17;0.60;;;22.40;53.40;;;;;;5031380;28;20561;-64
2022/07/10 06:08:45;;;;;;;3.10;0.80;;;22.30;53.40;;;;;;5031658;28;20124;-64
2022/07/10 06:11:11;;;;;;;1.85;0.70;;;22.40;53.50;;;;;;5032257;28;20097;-63
2022/07/10 06:13:38;;;;;;;1.92;0.80;;;22.40;53.50;;;;;;5032788;28;20042;-65
2022/07/10 06:16:04;;;;;;;1.58;0.65;;;22.30;53.60;;;;;;5030479;28;20060;-64
2022/07/10 06:18:30;;;;;;;2.45;1.00;;;22.30;53.60;;;;;;5032836;28;20127;-64
2022/07/10 06:20:56;;;;;;;2.13;0.88;;;22.30;53.70;;;;;;5030262;28;20045;-65
2022/07/10 06:23:22;;;;;;;2.72;0.90;;;22.30;53.90;;;;;;5034212;28;20037;-64
2022/07/10 06:25:49;;;;;;;2.90;0.88;;;22.40;54.00;;;;;;5010905;28;20041;-64
2022/07/10 06:28:15;;;;;;;1.98;0.65;;;22.40;54.10;;;;;;5030838;28;20061;-64
2022/07/10 06:30:41;;;;;;;2.55;0.77;;;22.40;54.20;;;;;;5032296;28;20464;-64
2022/07/10 06:33:06;;;;;;;3.38;0.90;;;22.40;54.30;;;;;;5031835;28;20040;-64
2022/07/10 06:35:32;;;;;;;1.58;0.60;;;22.50;54.40;;;;;;5032723;28;20196;-65
2022/07/10 06:37:58;;;;;;;3.08;0.90;;;22.50;54.50;;;;;;5030563;28;20509;-64
2022/07/10 06:40:25;;;;;;;2.47;0.70;;;22.50;54.60;;;;;;5029647;28;20034;-64
2022/07/10 06:42:50;;;;;;;2.10;0.68;;;22.50;54.70;;;;;;5029443;28;20037;-63
2022/07/10 06:45:16;;;;;;;3.70;1.10;;;22.50;55.00;;;;;;5013595;28;20472;-63
2022/07/10 06:47:57;;;;;;;10.93;1.23;;;22.50;55.10;;;;;;5009228;28;20054;-63
2022/07/10 06:50:26;;;;;;;2.60;0.82;;;22.50;55.40;;;;;;4995389;28;20053;-63
2022/07/10 06:52:52;;;;;;;2.10;0.77;;;22.50;55.50;;;;;;5028377;28;20408;-62
2022/07/10 06:55:21;;;;;;;7.07;1.10;;;22.50;55.90;;;;;;5029625;28;20044;-64
2022/07/10 06:57:47;;;;;;;5.00;0.90;;;22.60;56.10;;;;;;5026333;28;20092;-63
2022/07/10 07:00:13;;;;;;;3.47;1.13;;;22.60;56.20;;;;;;5008422;28;20057;-62
2022/07/10 07:02:39;;;;;;;2.85;1.13;;;22.60;56.40;;;;;;5026550;28;20398;-63
2022/07/10 07:05:07;;;;;;;3.08;0.93;;;22.60;56.20;;;;;;5025553;28;20037;-63
2022/07/10 07:07:37;;;;;;;4.40;1.20;;;22.60;57.00;;;;;;5030138;28;20053;-63
2022/07/10 07:10:05;;;;;;;2.35;1.00;;;22.60;56.50;;;;;;4994945;28;20037;-64
2022/07/10 07:12:38;;;;;;;1.58;0.90;;;22.60;56.90;;;;;;4982108;28;20922;-63
2022/07/10 07:15:09;;;;;;;3.58;1.00;;;22.60;56.70;;;;;;4994739;28;20045;-64
2022/07/10 07:23:10;;;;;;;5.15;1.20;;;22.60;56.90;;;;;;5024374;28;20043;-63
2022/07/10 07:25:41;;;;;;;3.53;1.10;;;22.60;56.80;;;;;;5007923;28;20041;-64
2022/07/10 07:28:09;;;;;;;2.40;1.00;;;22.60;57.00;;;;;;5006787;28;20038;-62
2022/07/10 07:30:34;;;;;;;3.92;1.10;;;22.60;57.10;;;;;;5026751;28;20048;-62
2022/07/10 07:33:00;;;;;;;3.88;1.13;;;22.60;56.80;;;;;;5027046;28;20386;-62
2022/07/10 07:35:26;;;;;;;6.65;1.02;;;22.60;56.50;;;;;;5026582;28;20500;-62
2022/07/10 07:37:52;;;;;;;2.85;0.90;;;22.60;56.60;;;;;;5008665;28;20041;-64
2022/07/10 07:40:23;;;;;;;3.13;1.15;;;22.60;56.80;;;;;;5020275;28;20374;-63
2022/07/10 07:42:49;;;;;;;;;;;22.60;57.00;;;;;;5023864;28;20049;-62
2022/07/10 07:45:14;;;;;;;3.05;0.90;;;22.60;57.20;;;;;;5002991;28;19994;-62
2022/07/10 07:47:45;;;;;;;4.57;1.00;;;22.60;57.10;;;;;;4991405;28;20860;-63
2022/07/10 07:50:12;;;;;;;3.40;0.93;;;22.60;57.50;;;;;;5023126;28;20046;-63
2022/07/10 07:52:38;;;;;;;7.82;1.00;;;22.60;57.60;;;;;;5024052;28;20049;-64
2022/07/10 07:55:04;;;;;;;3.35;0.88;;;22.60;57.70;;;;;;5022905;28;20079;-64
2022/07/10 07:57:29;;;;;;;3.50;1.08;;;22.60;57.80;;;;;;5024819;28;20108;-63
2022/07/10 07:59:55;;;;;;;3.15;1.08;;;22.60;57.90;;;;;;5021593;28;20825;-63
2022/07/10 08:02:22;;;;;;;1.92;0.90;;;22.60;57.90;;;;;;5006819;28;20103;-62
2022/07/10 08:04:47;;;;;;;6.32;1.30;;;22.60;58.10;;;;;;5025252;28;20037;-63
2022/07/10 08:07:13;;;;;;;3.15;1.02;;;22.60;58.30;;;;;;5006885;28;20484;-62
2022/07/10 08:09:39;;;;;;;2.72;1.10;;;22.60;58.50;;;;;;5010831;28;20041;-63
2022/07/10 08:12:05;;;;;;;4.25;1.40;;;22.70;58.80;;;;;;5022657;28;20207;-62
2022/07/10 08:14:30;;;;;;;3.35;1.20;;;22.70;58.90;;;;;;5022222;28;20037;-63
2022/07/10 08:16:56;;;;;;;3.40;1.00;;;22.70;59.00;;;;;;5006229;28;20603;-63
2022/07/10 08:19:22;;;;;;;3.90;1.05;;;22.70;59.10;;;;;;5023607;28;20044;-63
2022/07/10 08:21:47;;;;;;;4.72;1.80;;;22.70;59.20;;;;;;5022479;28;20497;-63
2022/07/10 08:24:14;;;;;;;10.63;1.30;;;22.70;59.20;;;;;;5024784;28;20042;-62
2022/07/10 08:26:40;;;;;;;9.82;1.48;;;22.70;59.30;;;;;;5022396;28;20041;-64
2022/07/10 08:29:06;;;;;;;3.72;1.08;;;22.70;59.20;;;;;;5022198;28;20025;-63
2022/07/10 08:31:33;;;;;;;6.20;1.25;;;22.70;59.30;;;;;;5005733;28;20589;-63
2022/07/10 08:33:59;;;;;;;3.22;1.02;;;22.70;59.40;;;;;;5024728;28;20959;-63
2022/07/10 08:36:26;;;;;;;2.88;0.80;;;22.70;59.60;;;;;;5024497;28;20038;-62
2022/07/10 08:38:53;;;;;;;6.28;1.17;;;22.70;59.60;;;;;;5006901;28;20049;-62
2022/07/10 08:41:26;;;;;;;3.53;1.13;;;22.70;59.70;;;;;;4989274;28;20055;-64
2022/07/10 08:43:52;;;;;;;4.78;0.88;;;22.70;59.70;;;;;;5006574;28;20128;-63
2022/07/10 08:46:18;;;;;;;3.17;0.70;;;22.70;59.90;;;;;;5024272;28;20052;-64
2022/07/10 08:48:48;;;;;;;3.55;1.00;;;22.70;59.90;;;;;;5027120;28;20041;-64
2022/07/10 08:51:41;;;;;;;3.90;0.90;;;22.70;59.90;;;;;;5023611;28;20103;-63
2022/07/10 08:54:07;;;;;;;3.97;1.08;;;22.70;59.80;;;;;;5023741;28;20064;-62
2022/07/10 08:56:34;;;;;;;5.95;1.20;;;22.70;59.90;;;;;;5022659;28;20040;-63
2022/07/10 08:59:01;;;;;;;3.22;1.05;;;22.70;59.90;;;;;;5022624;28;20476;-62
2022/07/10 09:01:27;;;;;;;4.03;0.98;;;22.70;59.90;;;;;;5023899;28;20509;-62
2022/07/10 09:03:53;;;;;;;2.72;0.63;;;22.70;59.90;;;;;;5002939;28;20091;-63
2022/07/10 09:06:19;;;;;;;4.72;0.90;;;22.70;60.00;;;;;;5023979;28;20091;-64
2022/07/10 09:09:04;;;;;;;2.45;0.80;;;22.70;60.00;;;;;;5022637;28;20076;-64
2022/07/10 09:11:30;;;;;;;2.45;0.60;;;22.70;60.00;;;;;;5023763;28;20034;-62
2022/07/10 09:14:08;;;;;;;1.95;0.70;;;22.70;60.00;;;;;;5019921;28;20041;-63
2022/07/10 09:16:45;;;;;;;3.42;0.70;;;22.70;59.70;;;;;;5003135;28;20045;-62
2022/07/10 09:19:25;;;;;;;1.85;0.80;;;22.70;59.70;;;;;;5021357;28;20850;-62
2022/07/10 09:21:52;;;;;;;3.15;0.95;;;22.70;59.90;;;;;;5023259;28;20049;-62
2022/07/10 09:24:21;;;;;;;3.13;0.60;;;22.70;60.00;;;;;;5026793;28;20038;-63
2022/07/10 09:26:56;;;;;;;4.60;0.60;;;22.70;59.90;;;;;;5025292;28;20029;-62
2022/07/10 09:29:22;;;;;;;2.58;0.70;;;22.70;60.00;;;;;;5025888;28;20041;-65
2022/07/10 09:31:58;;;;;;;2.10;0.63;;;22.70;59.90;;;;;;5025263;28;20044;-64
2022/07/10 09:34:40;;;;;;;3.00;0.68;;;22.70;60.00;;;;;;5026622;28;20468;-63
2022/07/10 09:37:25;;;;;;;2.42;0.70;;;22.70;60.00;;;;;;5028015;28;20041;-61
2022/07/10 09:39:59;;;;;;;2.33;0.68;;;22.70;60.00;;;;;;5027726;28;20044;-61
2022/07/10 09:42:28;;;;;;;1.38;0.47;;;22.70;60.00;;;;;;5009509;28;20512;-60
2022/07/10 09:45:18;;;;;;;1.00;0.57;;;22.70;60.00;;;;;;5023508;28;20076;-62
2022/07/10 09:48:00;;;;;;;1.13;0.63;;;22.70;60.10;;;;;;5024538;28;20053;-61
2022/07/10 09:50:37;;;;;;;2.58;0.70;;;22.70;59.70;;;;;;5026391;28;20425;-62
2022/07/10 09:53:04;;;;;;;4.50;0.65;;;22.70;60.00;;;;;;5027638;28;20045;-64
2022/07/10 09:55:35;;;;;;;1.52;0.50;;;22.70;59.90;;;;;;5026800;28;20578;-63
2022/07/10 09:58:02;;;;;;;0.60;0.52;;;22.70;59.80;;;;;;5025661;28;20406;-62
2022/07/10 10:00:42;;;;;;;2.10;0.85;;;22.70;59.60;;;;;;5025869;28;20042;-61
2022/07/10 10:03:11;;;;;;;2.15;0.60;;;22.70;59.50;;;;;;5024261;28;20046;-62
2022/07/10 10:06:13;;;;;;;2.45;0.88;;;22.70;59.20;;;;;;5027935;28;20049;-62
2022/07/10 10:08:56;;;;;;;2.63;0.82;;;22.70;59.10;;;;;;5002127;28;20543;-62
2022/07/10 10:11:25;;;;;;;0.95;0.55;;;22.70;59.10;;;;;;5007403;28;20052;-62
2022/07/10 10:13:52;;;;;;;2.75;0.95;;;22.70;59.10;;;;;;5011657;28;20298;-63
2022/07/10 10:16:20;;;;;;;4.35;0.80;;;22.60;59.10;;;;;;5000995;28;21180;-63
2022/07/10 10:21:32;;;;;;;2.78;0.98;;;22.60;59.60;;;;;;5026924;28;20030;-62
2022/07/10 10:24:00;;;;;;;2.35;0.80;;;22.60;59.90;;;;;;5005669;28;20068;-62
2022/07/10 10:26:26;;;;;;;2.47;0.80;;;22.60;60.40;;;;;;5026036;28;21199;-62
2022/07/10 10:28:54;;;;;;;1.63;0.70;;;22.60;60.50;;;;;;5026854;28;20037;-63
2022/07/10 10:31:21;;;;;;;2.90;0.98;;;22.70;60.60;;;;;;5022313;28;20041;-64
2022/07/10 10:33:48;;;;;;;4.10;0.82;;;22.70;60.60;;;;;;5030083;28;20041;-62
2022/07/10 10:36:34;;;;;;;2.47;0.75;;;22.70;60.60;;;;;;4999489;28;20041;-62
2022/07/10 10:39:01;;;;;;;2.85;0.90;;;22.70;60.60;;;;;;5027803;28;20049;-62
2022/07/10 10:41:39;;;;;;;4.10;0.98;;;22.70;60.50;;;;;;5030793;28;20033;-62
2022/07/10 10:44:08;;;;;;;2.33;0.70;;;22.70;60.60;;;;;;5030224;28;20033;-62
2022/07/10 10:46:34;;;;;;;4.13;0.82;;;22.70;60.60;;;;;;5024315;28;20099;-62
2022/07/10 10:49:08;;;;;;;1.20;0.73;;;22.70;60.60;;;;;;5010439;28;20041;-63
2022/07/10 10:51:56;;;;;;;2.88;0.70;;;22.70;60.60;;;;;;5010548;28;20593;-62
2022/07/10 10:54:22;;;;;;;5.07;0.93;;;22.70;60.60;;;;;;5005400;28;20687;-64
2022/07/10 10:57:14;;;;;;;2.28;0.90;;;22.70;60.70;;;;;;5009154;28;20053;-63
2022/07/10 10:59:51;;;;;;;1.98;0.80;;;22.70;61.20;;;;;;5010335;28;20517;-62
2022/07/10 11:02:26;;;;;;;2.13;0.90;;;22.70;60.40;;;;;;4990231;28;20632;-62
2022/07/10 11:05:18;;;;;;;4.78;0.70;;;22.70;60.30;;;;;;4994746;28;20038;-62
2022/07/10 11:07:58;;;;;;;4.18;0.70;;;22.70;60.30;;;;;;4993660;28;20586;-63
2022/07/10 11:10:41;;;;;;;2.55;0.85;;;22.70;60.40;;;;;;5009213;28;20033;-63
2022/07/10 11:13:15;;;;;;;1.77;0.63;;;22.70;60.50;;;;;;4988990;28;20119;-62
2022/07/10 11:15:46;;;;;;;3.38;0.70;;;22.70;60.50;;;;;;5010548;28;20049;-62
2022/07/10 11:18:17;;;;;;;1.80;0.60;;;22.70;60.50;;;;;;5006873;28;20535;-64
2022/07/10 11:20:49;;;;;;;1.60;0.70;;;22.70;60.60;;;;;;4994677;28;20081;-62
2022/07/10 11:23:34;;;;;;;1.85;0.80;;;22.70;60.60;;;;;;4993577;28;20470;-63
2022/07/10 11:26:08;;;;;;;1.50;0.60;;;22.70;60.70;;;;;;5010246;28;20061;-65
2022/07/10 11:28:53;;;;;;;2.85;0.88;;;22.70;60.60;;;;;;5011128;28;20030;-62
2022/07/10 11:31:21;;;;;;;2.17;0.65;;;22.70;60.70;;;;;;4991651;28;20401;-63
2022/07/10 11:33:51;;;;;;;2.42;0.90;;;22.70;60.60;;;;;;5008277;28;20041;-64
2022/07/10 11:36:17;;;;;;;8.68;0.93;;;22.70;60.70;;;;;;4991721;28;20041;-62
2022/07/10 11:38:44;;;;;;;2.70;0.77;;;22.70;60.50;;;;;;5009724;28;20081;-62
2022/07/10 11:41:23;;;;;;;6.00;0.82;;;22.70;60.40;;;;;;4992915;28;20034;-62
2022/07/10 11:43:54;;;;;;;5.80;0.80;;;22.70;60.50;;;;;;5009850;28;20048;-62
2022/07/10 11:46:23;;;;;;;3.58;1.00;;;22.70;60.50;;;;;;5007663;28;20387;-62
2022/07/10 11:48:52;;;;;;;4.05;1.02;;;22.70;60.50;;;;;;5030260;28;20403;-63
2022/07/10 11:51:32;;;;;;;3.25;1.05;;;22.70;60.50;;;;;;5027313;28;20035;-62
2022/07/10 11:54:02;;;;;;;2.45;1.00;;;22.70;60.60;;;;;;5030531;28;20033;-62
2022/07/10 11:56:32;;;;;;;3.03;1.13;;;22.70;60.60;;;;;;5028929;28;20445;-64
2022/07/10 11:59:08;;;;;;;5.03;0.93;;;22.70;60.50;;;;;;5028395;28;20077;-62
2022/07/10 12:01:40;;;;;;;7.40;1.42;;;22.70;60.30;;;;;;5026175;28;20128;-63
2022/07/10 12:04:06;;;;;;;5.78;1.05;;;22.70;60.50;;;;;;4999616;28;20104;-61
2022/07/10 12:06:34;;;;;;;2.20;0.80;;;22.70;60.70;;;;;;5029802;28;20039;-62
2022/07/10 12:09:04;;;;;;;1.92;0.82;;;22.70;60.80;;;;;;5010308;28;20053;-64
2022/07/10 12:11:30;;;;;;;2.60;0.77;;;22.70;60.90;;;;;;5014491;28;20564;-63
2022/07/10 12:14:14;;;;;;;3.00;0.90;;;22.70;60.80;;;;;;5008329;28;20175;-63
2022/07/10 12:16:43;;;;;;;3.40;0.90;;;22.70;60.80;;;;;;5006492;28;20076;-61
2022/07/10 12:19:13;;;;;;;4.63;0.73;;;22.70;60.80;;;;;;4998513;28;20068;-62
2022/07/10 12:21:40;;;;;;;3.33;0.85;;;22.70;60.70;;;;;;5024226;28;20087;-62
2022/07/10 12:24:07;;;;;;;1.95;0.93;;;22.70;60.60;;;;;;5013335;28;20029;-63
2022/07/10 12:26:34;;;;;;;5.55;1.25;;;22.70;60.60;;;;;;5027171;28;20037;-61
2022/07/10 12:29:00;;;;;;;2.35;1.10;;;22.70;60.60;;;;;;5025454;28;20571;-63
2022/07/10 12:31:29;;;;;;;6.13;0.90;;;22.70;60.50;;;;;;5025703;28;20494;-62
2022/07/10 12:34:03;;;;;;;3.03;0.98;;;22.70;60.50;;;;;;5030903;28;20500;-64
2022/07/10 12:36:52;;;;;;;1.88;0.80;;;22.70;60.50;;;;;;5010725;28;20045;-62
2022/07/10 12:39:22;;;;;;;1.55;0.85;;;22.70;60.50;;;;;;5028392;28;20426;-64
2022/07/10 12:42:05;;;;;;;2.03;0.93;;;22.70;60.60;;;;;;5027885;28;20034;-62
2022/07/10 12:44:42;;;;;;;3.03;1.08;;;22.70;60.40;;;;;;5025216;28;20041;-63
2022/07/10 12:47:15;;;;;;;2.33;0.80;;;22.70;60.60;;;;;;5024707;28;20107;-61
2022/07/10 12:50:01;;;;;;;3.53;1.20;;;22.70;60.60;;;;;;5025791;28;20060;-62
2022/07/10 12:52:31;;;;;;;4.15;1.00;;;22.70;60.50;;;;;;4999717;28;20155;-61
2022/07/10 12:55:16;;;;;;;6.55;0.95;;;22.70;60.50;;;;;;5026488;28;20053;-62
2022/07/10 12:57:55;;;;;;;4.13;1.30;;;22.70;60.30;;;;;;5009060;28;20047;-64
2022/07/10 13:00:27;;;;;;;3.90;1.13;;;22.70;60.10;;;;;;5027442;28;20049;-63
2022/07/10 13:03:10;;;;;;;2.75;1.02;;;22.70;60.10;;;;;;5026459;28;20399;-63
2022/07/10 13:05:38;;;;;;;3.80;0.98;;;22.70;60.00;;;;;;5011852;28;20042;-62
2022/07/10 13:08:25;;;;;;;3.70;1.27;;;22.60;60.00;;;;;;5012182;28;20087;-64